Time;durP1;ratioP1;P1;durP2;ratioP2;P2;SDS_P1;SDS_P2;PMS_P1;PMS_P2;Temp;Humidity;BMP_temperature;BMP_pressure;BME280_temperature;BME280_humidity;BME280_pressure;Samples;Min_cycle;Max_cycle;Signal;HPM_P1;HPM_P2
2023/07/10 00:02:22;;;;;;;8.70;3.20;;;;;;;25.11;83.37;100245.94;5090968;28;20052;-64
2023/07/10 00:04:48;;;;;;;6.95;3.45;;;;;;;24.96;84.26;100250.88;5090060;28;20023;-64
2023/07/10 00:07:13;;;;;;;5.10;3.33;;;;;;;24.90;84.62;100248.69;5090251;28;20054;-64
2023/07/10 00:09:38;;;;;;;9.50;3.50;;;;;;;24.83;85.17;100243.94;5090117;28;20024;-64
2023/07/10 00:12:05;;;;;;;6.00;3.33;;;;;;;24.76;85.42;100234.59;5091895;28;20085;-64
2023/07/10 00:14:33;;;;;;;7.22;3.40;;;;;;;24.67;85.77;100226.25;5090977;28;20073;-64
2023/07/10 00:16:59;;;;;;;8.25;3.70;;;;;;;24.67;85.86;100236.22;5091519;28;20672;-64
2023/07/10 00:19:24;;;;;;;6.25;3.75;;;;;;;24.64;86.16;100231.03;5091185;28;20023;-64
2023/07/10 00:21:50;;;;;;;6.97;3.13;;;;;;;24.59;86.14;100227.84;5086084;28;20025;-64
2023/07/10 00:24:16;;;;;;;6.32;3.78;;;;;;;24.55;86.51;100226.38;5090825;28;20453;-64
2023/07/10 00:26:42;;;;;;;8.45;3.80;;;;;;;24.44;87.13;100215.59;5091394;28;20016;-65
2023/07/10 00:29:22;;;;;;;8.48;3.65;;;;;;;24.40;87.18;100227.72;5091264;28;20487;-64
2023/07/10 00:31:47;;;;;;;9.05;3.55;;;;;;;24.44;87.24;100229.19;5090734;28;20059;-64
2023/07/10 00:34:17;;;;;;;5.57;2.97;;;;;;;24.44;87.61;100245.50;5090901;28;20052;-64
2023/07/10 00:36:45;;;;;;;6.40;3.45;;;;;;;24.42;87.93;100247.47;5091901;28;20107;-64
2023/07/10 00:39:24;;;;;;;7.28;3.60;;;;;;;24.42;87.65;100255.63;5092101;28;20024;-65
2023/07/10 00:41:55;;;;;;;8.27;3.42;;;;;;;24.43;87.77;100277.25;5082247;28;20035;-64
2023/07/10 00:44:23;;;;;;;7.30;4.07;;;;;;;24.42;86.76;100285.56;5081474;28;20045;-64
2023/07/10 00:46:56;;;;;;;7.18;3.25;;;;;;;24.39;86.25;100296.69;5091606;28;20027;-64
2023/07/10 00:49:43;;;;;;;9.88;4.32;;;;;;;24.44;85.67;100289.00;5089968;28;20028;-64
2023/07/10 00:52:16;;;;;;;8.30;3.95;;;;;;;24.47;85.29;100283.31;5090790;28;20111;-65
2023/07/10 00:54:46;;;;;;;7.07;3.78;;;;;;;24.37;85.05;100287.81;5090476;28;20655;-64
2023/07/10 00:57:18;;;;;;;6.72;3.35;;;;;;;24.35;86.01;100300.66;5090422;28;20046;-63
2023/07/10 00:59:44;;;;;;;14.45;4.50;;;;;;;24.35;86.04;100322.41;5089205;28;20808;-64
2023/07/10 01:02:12;;;;;;;6.15;3.50;;;;;;;24.40;85.56;100321.03;5081601;28;20048;-64
2023/07/10 01:04:42;;;;;;;9.00;3.78;;;;;;;24.41;85.45;100333.66;5071269;28;20101;-64
2023/07/10 01:07:10;;;;;;;5.75;3.22;;;;;;;24.43;85.54;100325.38;5070660;28;20124;-64
2023/07/10 01:09:36;;;;;;;8.05;3.38;;;;;;;24.48;85.38;100325.84;5052889;28;20111;-64
2023/07/10 01:12:05;;;;;;;6.80;3.55;;;;;;;24.51;85.18;100325.59;5070843;28;20037;-64
2023/07/10 01:14:36;;;;;;;9.43;3.45;;;;;;;24.53;85.06;100338.03;5067746;28;20032;-64
2023/07/10 01:17:07;;;;;;;10.60;4.30;;;;;;;24.56;85.73;100353.25;5070307;28;20078;-64
2023/07/10 01:19:34;;;;;;;8.50;3.63;;;;;;;24.59;85.26;100347.56;5070884;28;20480;-64
2023/07/10 01:22:00;;;;;;;6.43;3.38;;;;;;;24.64;84.25;100348.03;5073587;28;20169;-64
2023/07/10 01:24:26;;;;;;;6.70;3.63;;;;;;;24.72;83.70;100341.94;5070552;28;20036;-65
2023/07/10 01:26:51;;;;;;;5.80;3.58;;;;;;;24.77;83.36;100331.53;5069767;28;20031;-65
2023/07/10 01:29:25;;;;;;;7.05;3.80;;;;;;;24.84;83.88;100325.44;5070734;28;20028;-65
2023/07/10 01:31:53;;;;;;;6.43;3.30;;;;;;;24.79;83.70;100316.81;5070186;28;20024;-64
2023/07/10 01:34:22;;;;;;;7.47;3.95;;;;;;;24.90;83.57;100326.75;5069671;28;20479;-65
2023/07/10 01:36:48;;;;;;;5.65;3.17;;;;;;;24.91;83.24;100318.47;5073890;28;20028;-65
2023/07/10 01:39:13;;;;;;;9.00;3.67;;;;;;;24.93;83.40;100323.75;5071538;28;20027;-65
2023/07/10 01:41:42;;;;;;;6.75;3.65;;;;;;;24.98;83.60;100333.28;5078851;28;20125;-65
2023/07/10 01:44:27;;;;;;;7.32;3.40;;;;;;;25.01;82.89;100333.00;5079485;28;20614;-64
2023/07/10 01:46:53;;;;;;;7.82;3.40;;;;;;;25.05;82.99;100333.59;5068044;28;20016;-65
2023/07/10 01:49:23;;;;;;;7.07;3.67;;;;;;;25.04;83.54;100330.00;5067095;28;20028;-64
2023/07/10 01:51:49;;;;;;;5.97;3.75;;;;;;;25.04;84.47;100326.44;5067138;28;20032;-64
2023/07/10 01:54:16;;;;;;;8.07;3.55;;;;;;;25.03;85.08;100328.28;5064002;28;20059;-65
2023/07/10 01:56:42;;;;;;;7.00;3.83;;;;;;;25.00;85.08;100328.56;5050948;28;20040;-65
2023/07/10 01:59:08;;;;;;;8.05;3.72;;;;;;;24.98;84.76;100333.28;5070094;28;20483;-64
2023/07/10 02:01:33;;;;;;;7.72;3.60;;;;;;;24.98;83.65;100332.41;5068154;28;20048;-64
2023/07/10 02:03:59;;;;;;;6.07;3.83;;;;;;;25.03;82.72;100339.19;5087391;28;20080;-64
2023/07/10 02:06:26;;;;;;;9.07;4.13;;;;;;;25.14;81.84;100340.97;5088403;28;20071;-64
2023/07/10 02:08:51;;;;;;;6.40;3.53;;;;;;;25.17;81.32;100327.09;5067566;28;20545;-64
2023/07/10 02:11:17;;;;;;;6.25;3.22;;;;;;;25.26;81.08;100315.38;5087895;28;20032;-64
2023/07/10 02:13:42;;;;;;;7.47;3.75;;;;;;;25.26;81.85;100289.00;5089928;28;20460;-64
2023/07/10 02:16:10;;;;;;;8.23;3.50;;;;;;;25.19;82.60;100271.47;5088760;28;20031;-65
2023/07/10 02:18:36;;;;;;;7.70;3.50;;;;;;;25.12;83.58;100245.81;5090157;28;20380;-64
2023/07/10 02:21:01;;;;;;;6.07;3.67;;;;;;;25.08;84.52;100270.72;5090124;28;20031;-64
2023/07/10 02:23:26;;;;;;;8.95;3.53;;;;;;;24.94;84.18;100329.09;5075082;28;20044;-64
2023/07/10 02:25:52;;;;;;;7.93;4.13;;;;;;;24.84;84.75;100379.00;5078741;28;20395;-64
2023/07/10 02:28:17;;;;;;;8.25;3.88;;;;;;;24.88;84.67;100388.63;5090061;28;20032;-65
2023/07/10 02:30:43;;;;;;;6.25;3.92;;;;;;;24.92;84.04;100363.75;5090053;28;20035;-64
2023/07/10 02:33:08;;;;;;;8.00;3.88;;;;;;;25.03;83.29;100350.06;5088728;28;20023;-65
2023/07/10 02:35:34;;;;;;;8.07;4.25;;;;;;;25.09;82.86;100367.75;5089528;28;20130;-65
2023/07/10 02:37:59;;;;;;;6.15;3.58;;;;;;;25.17;82.49;100365.22;5080831;28;20027;-65
2023/07/10 02:40:24;;;;;;;7.93;4.00;;;;;;;25.19;82.28;100366.78;5088848;28;20016;-64
2023/07/10 02:42:50;;;;;;;8.52;3.78;;;;;;;25.20;82.61;100375.81;5088787;28;20028;-64
2023/07/10 02:45:15;;;;;;;8.23;3.90;;;;;;;25.23;82.19;100384.59;5088789;28;20024;-65
2023/07/10 02:47:41;;;;;;;8.10;3.60;;;;;;;25.24;82.21;100382.75;5087882;28;20127;-65
2023/07/10 02:50:09;;;;;;;8.57;4.63;;;;;;;25.25;81.85;100379.88;5087719;28;20032;-64
2023/07/10 02:52:34;;;;;;;7.60;3.85;;;;;;;25.25;81.98;100385.34;5086968;28;20376;-64
2023/07/10 02:55:00;;;;;;;6.20;3.83;;;;;;;25.25;82.10;100385.34;5088122;28;20035;-65
2023/07/10 02:57:25;;;;;;;9.23;4.40;;;;;;;25.23;82.43;100381.00;5088504;28;20111;-64
2023/07/10 02:59:51;;;;;;;7.13;4.22;;;;;;;25.23;82.34;100375.56;5087885;28;20074;-64
2023/07/10 03:02:16;;;;;;;6.80;3.65;;;;;;;25.25;82.43;100379.88;5088255;28;20146;-64
2023/07/10 03:04:41;;;;;;;5.65;3.50;;;;;;;25.32;82.28;100391.09;5082402;28;20036;-64
2023/07/10 03:07:07;;;;;;;7.38;3.80;;;;;;;25.32;81.99;100397.41;5068214;28;20672;-64
2023/07/10 03:09:32;;;;;;;10.48;4.50;;;;;;;25.35;82.31;100391.75;5068902;28;20135;-64
2023/07/10 03:11:58;;;;;;;11.15;4.05;;;;;;;25.38;82.26;100393.31;5069176;28;20026;-65
2023/07/10 03:14:23;;;;;;;25.17;5.22;;;;;;;25.41;82.04;100388.47;5067066;28;20024;-64
2023/07/10 03:16:48;;;;;;;30.08;6.53;;;;;;;25.42;82.22;100390.19;5068063;28;20028;-64
2023/07/10 03:19:14;;;;;;;10.82;4.55;;;;;;;25.44;82.59;100411.84;5068012;28;20411;-64
2023/07/10 03:21:39;;;;;;;17.35;4.70;;;;;;;25.46;82.84;100398.94;5068164;28;20037;-64
2023/07/10 03:24:05;;;;;;;7.53;4.35;;;;;;;25.47;83.36;100390.63;5052822;28;20029;-64
2023/07/10 03:26:30;;;;;;;6.75;3.88;;;;;;;25.45;84.02;100387.19;5067283;28;20116;-64
2023/07/10 03:29:11;;;;;;;6.38;3.40;;;;;;;25.35;85.66;100386.28;5067742;28;20227;-64
2023/07/10 03:31:37;;;;;;;9.32;4.00;;;;;;;25.23;86.88;100425.44;5048667;28;20384;-64
2023/07/10 03:34:02;;;;;;;8.30;4.22;;;;;;;25.17;88.15;100428.69;5049012;28;20029;-64
2023/07/10 03:36:28;;;;;;;8.00;4.35;;;;;;;25.10;89.05;100435.66;5067652;28;20036;-63
2023/07/10 03:38:54;;;;;;;8.80;3.75;;;;;;;24.95;89.83;100442.41;5070478;28;20016;-63
2023/07/10 03:41:20;;;;;;;7.85;3.88;;;;;;;24.92;89.76;100431.78;5067440;28;20700;-64
2023/07/10 03:43:48;;;;;;;7.38;3.92;;;;;;;24.88;89.77;100419.44;5049715;28;20075;-64
2023/07/10 03:46:13;;;;;;;8.98;4.82;;;;;;;24.92;89.24;100393.69;5066448;28;20534;-63
2023/07/10 03:48:39;;;;;;;7.15;3.92;;;;;;;24.92;89.43;100390.97;5066935;28;20106;-64
2023/07/10 03:51:04;;;;;;;11.98;4.18;;;;;;;24.93;89.41;100400.84;5070943;28;20024;-64
2023/07/10 03:53:29;;;;;;;6.88;4.15;;;;;;;24.93;88.81;100399.97;5071845;28;20031;-64
2023/07/10 03:55:55;;;;;;;7.93;4.25;;;;;;;24.92;89.27;100398.25;5054504;28;20043;-64
2023/07/10 03:58:29;;;;;;;8.25;4.05;;;;;;;24.89;89.20;100402.13;5065385;28;20120;-64
2023/07/10 04:00:56;;;;;;;7.32;4.20;;;;;;;24.90;89.29;100408.41;5065068;28;20119;-64
2023/07/10 04:03:24;;;;;;;7.20;4.05;;;;;;;24.91;89.74;100412.88;5078470;28;20127;-64
2023/07/10 04:05:52;;;;;;;5.88;3.90;;;;;;;24.92;90.09;100390.97;5087753;28;20445;-64
2023/07/10 04:08:34;;;;;;;7.78;4.25;;;;;;;24.90;91.02;100376.63;5087858;28;20024;-64
2023/07/10 04:11:03;;;;;;;7.85;3.92;;;;;;;24.90;91.36;100390.22;5072324;28;20028;-64
2023/07/10 04:13:28;;;;;;;6.57;4.00;;;;;;;24.89;92.26;100415.75;5087597;28;20379;-65
2023/07/10 04:16:10;;;;;;;7.32;4.00;;;;;;;24.88;91.83;100433.03;5086937;28;20020;-64
2023/07/10 04:18:37;;;;;;;5.90;3.45;;;;;;;24.88;91.99;100446.66;5088049;28;20570;-64
2023/07/10 04:21:09;;;;;;;6.85;3.83;;;;;;;24.91;92.08;100443.66;5091133;28;20039;-63
2023/07/10 04:23:35;;;;;;;8.05;4.63;;;;;;;24.89;92.47;100440.22;5089688;28;20197;-64
2023/07/10 04:26:00;;;;;;;11.15;4.55;;;;;;;24.92;92.60;100442.69;5091130;28;20349;-64
2023/07/10 04:28:26;;;;;;;6.78;4.28;;;;;;;24.89;92.31;100432.06;5091069;28;20032;-65
2023/07/10 04:30:53;;;;;;;9.13;4.97;;;;;;;24.85;92.07;100436.03;5091077;28;20020;-64
2023/07/10 04:33:19;;;;;;;8.38;4.47;;;;;;;24.95;91.38;100445.16;5089531;28;20081;-65
2023/07/10 04:35:52;;;;;;;8.65;5.07;;;;;;;25.01;91.17;100447.34;5090894;28;20036;-64
2023/07/10 04:38:18;;;;;;;8.85;4.40;;;;;;;25.02;90.88;100448.22;5089085;28;20105;-64
2023/07/10 04:40:57;;;;;;;8.30;4.97;;;;;;;25.08;90.46;100456.72;5090699;28;20475;-64
2023/07/10 04:43:24;;;;;;;7.15;4.28;;;;;;;25.15;90.08;100454.31;5087048;28;20027;-64
2023/07/10 04:45:52;;;;;;;7.05;4.57;;;;;;;25.23;89.66;100458.13;5090563;28;20106;-64
2023/07/10 04:48:18;;;;;;;6.80;4.30;;;;;;;25.31;89.59;100461.03;5090945;28;20077;-65
2023/07/10 04:50:48;;;;;;;9.15;4.45;;;;;;;25.36;89.67;100457.94;5089871;28;20517;-65
2023/07/10 04:53:13;;;;;;;9.20;4.82;;;;;;;25.47;89.20;100477.81;5081930;28;20104;-65
2023/07/10 04:55:38;;;;;;;8.75;4.30;;;;;;;25.56;87.98;100487.94;5082665;28;20016;-64
2023/07/10 04:58:04;;;;;;;6.68;4.47;;;;;;;25.71;87.77;100491.19;5090173;28;20354;-65
2023/07/10 05:00:30;;;;;;;10.95;4.57;;;;;;;25.83;87.49;100495.56;5089023;28;20028;-64
2023/07/10 05:02:56;;;;;;;8.35;4.30;;;;;;;25.90;86.70;100508.50;5090094;28;20093;-64
2023/07/10 05:05:21;;;;;;;11.23;4.03;;;;;;;26.02;85.86;100501.13;5091128;28;20716;-64
2023/07/10 05:07:47;;;;;;;9.15;5.43;;;;;;;26.14;84.74;100496.47;5090033;28;20071;-64
2023/07/10 05:10:12;;;;;;;9.75;4.18;;;;;;;26.25;84.06;100501.81;5091007;28;20108;-65
2023/07/10 05:12:37;;;;;;;7.55;4.05;;;;;;;26.34;83.40;100507.31;5090774;28;20387;-65
2023/07/10 05:15:03;;;;;;;7.68;4.15;;;;;;;26.41;82.45;100513.94;5090736;28;20034;-65
2023/07/10 05:17:28;;;;;;;9.82;4.28;;;;;;;26.41;82.55;100516.66;5089648;28;20027;-65
2023/07/10 05:19:54;;;;;;;10.65;4.22;;;;;;;26.39;82.83;100518.66;5090933;28;20387;-65
2023/07/10 05:22:19;;;;;;;7.63;4.28;;;;;;;26.43;82.71;100521.97;5087814;28;20465;-65
2023/07/10 05:24:45;;;;;;;7.30;3.95;;;;;;;26.43;84.26;100511.94;5080773;28;20024;-65
2023/07/10 05:27:10;;;;;;;8.90;4.20;;;;;;;26.46;83.65;100516.22;5088817;28;20116;-65
2023/07/10 05:29:35;;;;;;;9.63;4.00;;;;;;;26.53;83.99;100520.16;5087591;28;20124;-65
2023/07/10 05:32:01;;;;;;;6.20;3.80;;;;;;;26.65;83.00;100525.41;5088368;28;20078;-65
2023/07/10 05:34:26;;;;;;;6.70;4.22;;;;;;;26.69;81.41;100525.97;5088322;28;20023;-65
2023/07/10 05:36:52;;;;;;;6.90;3.95;;;;;;;26.76;80.67;100514.38;5085159;28;20032;-64
2023/07/10 05:39:17;;;;;;;9.68;4.25;;;;;;;26.77;79.96;100516.06;5089157;28;20379;-64
2023/07/10 05:41:43;;;;;;;10.20;4.60;;;;;;;26.77;79.97;100515.25;5089036;28;20047;-63
2023/07/10 05:44:08;;;;;;;7.20;4.07;;;;;;;26.76;79.96;100518.94;5089606;28;20024;-63
2023/07/10 05:46:34;;;;;;;6.40;3.85;;;;;;;26.77;80.70;100509.78;5089301;28;20089;-63
2023/07/10 05:48:59;;;;;;;7.13;4.00;;;;;;;26.86;80.79;100508.91;5088083;28;20028;-63
2023/07/10 05:51:24;;;;;;;8.98;3.90;;;;;;;26.98;79.89;100513.25;5089253;28;20036;-62
2023/07/10 05:53:50;;;;;;;6.28;3.80;;;;;;;27.13;79.27;100517.31;5086341;28;20038;-65
2023/07/10 05:56:15;;;;;;;7.60;3.60;;;;;;;27.20;78.28;100516.56;5069900;28;20036;-63
2023/07/10 05:58:41;;;;;;;9.68;4.20;;;;;;;27.32;77.54;100516.44;5071946;28;20442;-63
2023/07/10 06:01:07;;;;;;;6.03;3.88;;;;;;;27.47;77.07;100510.41;5069919;28;20027;-62
2023/07/10 06:03:33;;;;;;;8.93;4.07;;;;;;;27.53;77.13;100515.28;5088886;28;20052;-62
2023/07/10 06:06:02;;;;;;;10.38;4.50;;;;;;;27.50;76.29;100515.59;5090371;28;20207;-62
2023/07/10 06:08:28;;;;;;;10.38;4.28;;;;;;;27.58;76.41;100512.16;5088360;28;20027;-63
2023/07/10 06:10:54;;;;;;;8.73;4.55;;;;;;;27.55;75.77;100507.81;5090278;28;20032;-63
2023/07/10 06:13:20;;;;;;;7.45;3.63;;;;;;;27.63;75.97;100513.41;5087123;28;20373;-63
2023/07/10 06:15:48;;;;;;;9.48;4.43;;;;;;;27.65;74.53;100511.41;5082883;28;20545;-65
2023/07/10 06:18:15;;;;;;;8.70;4.05;;;;;;;27.71;74.47;100512.69;5083665;28;20031;-64
2023/07/10 06:20:41;;;;;;;8.50;3.75;;;;;;;27.81;73.89;100514.38;5074117;28;20384;-65
2023/07/10 06:23:06;;;;;;;10.55;4.50;;;;;;;27.89;75.86;100520.00;5075923;28;20027;-63
2023/07/10 06:25:32;;;;;;;7.97;4.07;;;;;;;28.02;74.27;100517.81;5071925;28;20035;-63
2023/07/10 06:27:58;;;;;;;8.13;3.80;;;;;;;28.12;72.87;100517.81;5050013;28;20024;-61
2023/07/10 06:30:23;;;;;;;7.95;3.80;;;;;;;28.27;72.86;100522.63;5068658;28;20028;-63
2023/07/10 06:32:49;;;;;;;8.45;4.10;;;;;;;28.47;72.23;100519.81;5079519;28;20460;-62
2023/07/10 06:35:14;;;;;;;7.68;4.10;;;;;;;28.61;71.19;100524.81;5088647;28;20043;-61
2023/07/10 06:37:41;;;;;;;6.70;4.03;;;;;;;28.63;70.44;100520.06;5088578;28;20031;-64
2023/07/10 06:40:14;;;;;;;7.22;3.83;;;;;;;28.78;70.78;100511.16;5086004;28;20028;-62
2023/07/10 06:42:41;;;;;;;6.53;4.00;;;;;;;28.98;68.96;100518.22;5087526;28;20028;-62
2023/07/10 06:45:08;;;;;;;7.75;3.58;;;;;;;28.98;68.81;100522.88;5075613;28;20237;-62
2023/07/10 06:47:39;;;;;;;6.75;3.90;;;;;;;28.92;69.03;100518.84;5087743;28;20024;-62
2023/07/10 06:50:06;;;;;;;6.85;3.78;;;;;;;29.04;69.31;100511.28;5086187;28;20019;-62
2023/07/10 06:52:32;;;;;;;10.18;3.88;;;;;;;29.17;69.09;100507.19;5088384;28;20024;-61
2023/07/10 06:54:57;;;;;;;8.55;4.28;;;;;;;29.33;68.26;100515.53;5076630;28;20020;-62
2023/07/10 06:57:23;;;;;;;8.05;3.50;;;;;;;29.52;67.36;100514.53;5074878;28;20400;-62
2023/07/10 06:59:48;;;;;;;8.70;4.00;;;;;;;29.70;67.29;100520.88;5069300;28;20138;-61
2023/07/10 07:02:13;;;;;;;7.45;4.10;;;;;;;29.71;65.92;100528.06;5077343;28;20387;-62
2023/07/10 07:04:41;;;;;;;7.03;3.33;;;;;;;29.73;68.85;100525.16;5089378;28;20024;-62
2023/07/10 07:07:07;;;;;;;7.53;3.85;;;;;;;29.93;66.01;100521.19;5069341;28;20479;-62
2023/07/10 07:09:32;;;;;;;6.93;3.58;;;;;;;29.99;66.20;100523.28;5087654;28;20028;-61
2023/07/10 07:11:58;;;;;;;6.13;3.45;;;;;;;29.95;65.70;100538.38;5084738;28;20039;-62
2023/07/10 07:14:24;;;;;;;9.05;3.85;;;;;;;30.05;65.97;100534.47;5068416;28;20024;-62
2023/07/10 07:16:50;;;;;;;6.50;3.50;;;;;;;30.10;64.06;100545.84;5071136;28;20655;-61
2023/07/10 07:19:15;;;;;;;5.78;3.50;;;;;;;30.12;64.10;100543.78;5079924;28;20017;-62
2023/07/10 07:21:41;;;;;;;6.95;3.63;;;;;;;30.10;63.60;100545.84;5087989;28;20054;-62
2023/07/10 07:24:06;;;;;;;8.25;4.20;;;;;;;30.21;65.22;100540.09;5086645;28;20024;-62
2023/07/10 07:26:32;;;;;;;6.70;3.60;;;;;;;30.28;64.21;100543.91;5087941;28;20042;-62
2023/07/10 07:28:57;;;;;;;7.47;3.88;;;;;;;30.62;63.05;100550.31;5086612;28;20024;-62
2023/07/10 07:31:22;;;;;;;9.32;3.45;;;;;;;30.71;61.50;100551.16;5069085;28;20035;-62
2023/07/10 07:33:49;;;;;;;7.50;3.53;;;;;;;30.94;62.35;100560.56;5068196;28;20111;-62
2023/07/10 07:36:14;;;;;;;7.55;4.22;;;;;;;30.84;60.00;100562.63;5085225;28;20149;-62
2023/07/10 07:38:40;;;;;;;9.82;3.85;;;;;;;30.92;61.12;100561.78;5087563;28;20092;-62
2023/07/10 07:41:06;;;;;;;5.88;3.22;;;;;;;30.72;61.63;100566.66;5087680;28;20020;-62
2023/07/10 07:43:32;;;;;;;6.97;4.15;;;;;;;30.57;63.04;100566.41;5085723;28;20039;-62
2023/07/10 07:45:58;;;;;;;6.35;3.88;;;;;;;30.42;63.56;100569.91;5086691;28;20024;-62
2023/07/10 07:48:25;;;;;;;10.25;4.35;;;;;;;30.67;62.53;100558.91;5083228;28;20024;-62
2023/07/10 07:51:07;;;;;;;7.38;3.70;;;;;;;31.16;61.63;100561.84;5086076;28;20130;-62
2023/07/10 07:53:35;;;;;;;9.17;3.83;;;;;;;31.27;60.73;100561.53;5091470;28;20497;-62
2023/07/10 07:56:00;;;;;;;5.97;4.05;;;;;;;31.11;60.78;100572.47;5090928;28;20281;-62
2023/07/10 07:58:27;;;;;;;6.35;4.22;;;;;;;31.17;60.39;100571.81;5092456;28;20016;-62
2023/07/10 08:00:52;;;;;;;7.00;4.05;;;;;;;31.52;59.69;100577.06;5090881;28;20085;-62
2023/07/10 08:03:18;;;;;;;7.05;4.10;;;;;;;31.80;58.49;100564.69;5091930;28;20047;-62
2023/07/10 08:05:43;;;;;;;7.43;4.07;;;;;;;31.72;58.00;100561.94;5074061;28;20040;-62
2023/07/10 08:08:10;;;;;;;7.15;3.55;;;;;;;31.70;58.05;100580.50;5092287;28;20036;-62
2023/07/10 08:10:47;;;;;;;7.47;4.10;;;;;;;31.86;59.04;100577.81;5091772;28;20055;-62
2023/07/10 08:13:14;;;;;;;6.85;3.33;;;;;;;31.84;57.68;100574.34;5091624;28;20055;-62
2023/07/10 08:15:40;;;;;;;6.35;4.05;;;;;;;31.80;58.05;100572.94;5090453;28;20360;-62
2023/07/10 08:18:06;;;;;;;9.27;4.00;;;;;;;31.66;58.66;100581.91;5090972;28;20046;-62
2023/07/10 08:20:32;;;;;;;11.40;5.07;;;;;;;31.42;58.52;100582.72;5091792;28;20103;-61
2023/07/10 08:22:58;;;;;;;5.72;3.72;;;;;;;31.42;59.67;100573.59;5091628;28;20365;-62
2023/07/10 08:25:23;;;;;;;7.45;3.20;;;;;;;31.42;59.04;100584.59;5092099;28;20093;-62
2023/07/10 08:27:48;;;;;;;8.73;3.58;;;;;;;31.50;58.96;100590.16;5091842;28;20079;-62
2023/07/10 08:30:15;;;;;;;7.20;3.80;;;;;;;31.45;59.87;100589.78;5091556;28;20028;-62
2023/07/10 08:32:40;;;;;;;6.80;4.05;;;;;;;31.61;59.74;100595.31;5089261;28;20027;-62
2023/07/10 08:35:09;;;;;;;7.13;4.13;;;;;;;31.76;57.97;100585.34;5073523;28;20036;-62
2023/07/10 08:37:38;;;;;;;6.53;3.75;;;;;;;31.99;58.00;100584.50;5081626;28;20028;-62
2023/07/10 08:40:06;;;;;;;9.73;4.35;;;;;;;32.62;57.67;100580.97;5090057;28;20375;-62
2023/07/10 08:42:31;;;;;;;6.25;3.42;;;;;;;33.24;55.06;100589.16;5089042;28;20043;-62
2023/07/10 08:45:00;;;;;;;8.63;3.55;;;;;;;33.73;51.99;100572.28;5090365;28;20368;-62
2023/07/10 08:47:40;;;;;;;5.63;3.40;;;;;;;34.17;50.93;100584.34;5091096;28;20376;-62
2023/07/10 08:50:29;;;;;;;7.00;3.45;;;;;;;34.39;51.33;100583.44;5086067;28;20032;-62
2023/07/10 08:53:12;;;;;;;8.38;4.75;;;;;;;34.06;51.44;100569.09;5080107;28;20032;-62
2023/07/10 08:55:59;;;;;;;7.68;3.75;;;;;;;33.97;50.76;100575.72;5089662;28;20365;-63
2023/07/10 08:58:28;;;;;;;6.13;3.25;;;;;;;33.68;52.07;100574.75;5090831;28;20031;-62
2023/07/10 09:00:59;;;;;;;8.00;4.00;;;;;;;33.31;54.28;100579.09;5090078;28;20032;-62
2023/07/10 09:03:33;;;;;;;6.18;3.85;;;;;;;33.11;54.99;100577.84;5089501;28;20044;-63
2023/07/10 09:06:01;;;;;;;7.82;3.60;;;;;;;32.67;57.19;100573.88;5071414;28;20032;-63
2023/07/10 09:08:27;;;;;;;7.40;4.10;;;;;;;32.77;56.86;100571.78;5084532;28;20032;-62
2023/07/10 09:10:57;;;;;;;6.50;4.03;;;;;;;33.35;57.40;100574.97;5075481;28;20082;-63
2023/07/10 09:13:31;;;;;;;7.28;4.57;;;;;;;33.81;54.25;100572.22;5081142;28;20138;-62
2023/07/10 09:15:57;;;;;;;7.50;4.38;;;;;;;34.25;53.82;100573.25;5080592;28;20071;-62
2023/07/10 09:18:34;;;;;;;8.70;4.22;;;;;;;34.53;52.07;100568.81;5078301;28;20020;-63
2023/07/10 09:21:07;;;;;;;7.45;4.25;;;;;;;34.70;51.90;100573.09;5072009;28;20070;-63
2023/07/10 09:23:33;;;;;;;8.25;3.97;;;;;;;34.32;50.62;100569.53;5080156;28;20031;-63
2023/07/10 09:26:09;;;;;;;5.70;4.10;;;;;;;34.33;51.97;100568.47;5079363;28;20402;-63
2023/07/10 09:28:37;;;;;;;8.50;4.25;;;;;;;34.71;50.17;100574.81;5088540;28;20103;-63
2023/07/10 09:31:08;;;;;;;7.40;3.88;;;;;;;34.35;51.11;100573.81;5071144;28;20024;-63
2023/07/10 09:33:50;;;;;;;8.20;3.70;;;;;;;34.77;50.80;100564.88;5069343;28;20098;-63
2023/07/10 09:36:18;;;;;;;5.43;3.92;;;;;;;35.05;48.11;100577.00;5086450;28;20020;-63
2023/07/10 09:38:45;;;;;;;7.25;4.05;;;;;;;35.22;49.41;100573.81;5074822;28;20040;-63
2023/07/10 09:41:13;;;;;;;5.68;3.90;;;;;;;35.22;50.25;100561.88;5068049;28;20472;-63
2023/07/10 09:43:49;;;;;;;17.10;4.63;;;;;;;35.38;50.80;100567.22;5074799;28;20046;-63
2023/07/10 09:46:14;;;;;;;10.77;4.30;;;;;;;35.58;48.03;100566.38;5070655;28;20047;-63
2023/07/10 09:48:40;;;;;;;7.07;3.97;;;;;;;35.85;47.71;100563.88;5068669;28;20013;-63
2023/07/10 09:51:08;;;;;;;6.95;4.15;;;;;;;35.59;46.86;100559.78;5079749;28;20589;-63
2023/07/10 09:53:45;;;;;;;7.53;3.92;;;;;;;35.18;49.36;100561.41;5083960;28;20059;-63
2023/07/10 09:56:35;;;;;;;6.72;3.80;;;;;;;34.59;48.14;100565.28;5073936;28;20030;-64
2023/07/10 09:59:03;;;;;;;7.68;3.92;;;;;;;34.79;49.55;100560.88;5070361;28;20021;-63
2023/07/10 10:01:31;;;;;;;6.07;3.80;;;;;;;35.20;47.89;100558.44;5080595;28;20055;-63
2023/07/10 10:04:00;;;;;;;5.00;3.33;;;;;;;35.16;47.31;100554.34;5069829;28;20135;-63
2023/07/10 10:06:30;;;;;;;5.55;3.30;;;;;;;35.16;49.33;100557.97;5070552;28;20491;-63
2023/07/10 10:08:56;;;;;;;6.35;3.58;;;;;;;35.22;47.51;100557.22;5074602;28;20093;-63
2023/07/10 10:11:48;;;;;;;6.65;3.30;;;;;;;35.54;47.04;100556.75;5068361;28;20150;-63
2023/07/10 10:14:21;;;;;;;6.63;3.38;;;;;;;35.55;46.20;100555.69;5079712;28;20368;-62
2023/07/10 10:16:53;;;;;;;;;;;;;;;35.29;46.31;100541.53;5085530;28;20399;-63
2023/07/10 10:19:25;;;;;;;6.43;3.17;;;;;;;34.88;47.95;100545.91;5088376;28;19994;-63
2023/07/10 10:21:50;;;;;;;7.13;3.53;;;;;;;34.88;47.69;100548.66;5074780;28;20036;-64
2023/07/10 10:24:16;;;;;;;6.60;3.65;;;;;;;35.39;46.14;100547.63;5083057;28;20508;-64
2023/07/10 10:27:09;;;;;;;10.05;3.10;;;;;;;35.95;44.32;100539.50;5068626;28;20114;-64
2023/07/10 10:29:46;;;;;;;15.88;9.07;;;;;;;36.30;43.76;100539.31;5071146;28;20596;-63
2023/07/10 10:32:30;;;;;;;6.07;3.10;;;;;;;36.12;44.32;100547.28;5067537;28;20032;-63
2023/07/10 10:35:09;;;;;;;6.25;3.38;;;;;;;35.45;44.79;100546.84;5072376;28;20369;-63
2023/07/10 10:37:53;;;;;;;8.57;4.47;;;;;;;35.53;44.59;100538.44;5084314;28;20020;-63
2023/07/10 10:40:37;;;;;;;5.95;3.45;;;;;;;35.65;44.28;100533.22;5071051;28;20115;-64
2023/07/10 10:43:05;;;;;;;6.38;3.40;;;;;;;35.20;45.17;100537.19;5080648;28;20035;-63
2023/07/10 10:45:39;;;;;;;5.50;3.47;;;;;;;35.17;44.86;100532.06;5069488;28;20163;-63
2023/07/10 10:48:18;;;;;;;10.55;3.60;;;;;;;35.89;44.56;100527.28;5069216;28;20024;-63
2023/07/10 10:51:02;;;;;;;6.20;3.30;;;;;;;36.40;42.97;100530.66;5079639;28;20028;-63
2023/07/10 10:53:38;;;;;;;6.30;3.33;;;;;;;36.21;43.03;100529.44;5072643;28;20362;-63
2023/07/10 10:56:17;;;;;;;7.32;3.40;;;;;;;36.69;41.87;100527.66;5069843;28;20028;-63
2023/07/10 10:59:09;;;;;;;6.28;3.40;;;;;;;36.97;41.52;100531.19;5069231;28;20029;-64
2023/07/10 11:02:13;;;;;;;6.80;3.72;;;;;;;36.67;42.02;100522.28;5067479;28;20020;-63
2023/07/10 11:04:45;;;;;;;9.13;3.53;;;;;;;35.79;42.85;100522.06;5004352;28;20054;-63
2023/07/10 11:07:13;;;;;;;9.93;3.33;;;;;;;35.88;42.55;100524.72;5004047;28;20049;-64
2023/07/10 11:09:49;;;;;;;6.50;3.00;;;;;;;36.27;42.12;100509.25;5039235;28;20052;-64
2023/07/10 11:12:24;;;;;;;6.05;3.15;;;;;;;36.29;41.76;100514.59;5068228;28;20020;-64
2023/07/10 11:14:55;;;;;;;10.20;3.75;;;;;;;35.79;41.45;100511.00;5071152;28;20032;-63
2023/07/10 11:17:21;;;;;;;5.53;3.33;;;;;;;35.02;43.78;100522.94;5068652;28;20024;-63
2023/07/10 11:19:48;;;;;;;8.55;4.03;;;;;;;34.73;43.57;100511.88;5071109;28;20029;-63
2023/07/10 11:22:37;;;;;;;6.80;3.40;;;;;;;34.84;43.35;100505.00;5078135;28;20019;-63
2023/07/10 11:25:03;;;;;;;5.75;3.17;;;;;;;35.01;42.80;100507.38;5072475;28;20021;-63
2023/07/10 11:27:41;;;;;;;6.25;3.25;;;;;;;35.82;43.17;100503.34;5084079;28;20533;-63
2023/07/10 11:30:08;;;;;;;4.72;3.17;;;;;;;36.66;42.96;100503.09;5075102;28;20075;-64
2023/07/10 11:32:54;;;;;;;6.03;3.60;;;;;;;37.33;40.19;100495.72;5071150;28;20236;-65